Valencia, Pennsylvania
Current Conditions -  °F | °C
As of 10:55 AM on Saturday 20 Dec 2014 (Local Time) from KBTP Reporting Station
Overcast Overcast  
Wind Chill: 28°   Ceiling: 2100
Heat Index: 28°   Visibility: 10mi
Dew Point: 19°   Wind: 3mph
Humidity: 69%   Direction: 330°NNW
Pressure: 30.28"   Gusts: NA
Location:  40.68°N, 79.99°W
Report Text: KBTP 201555Z AUTO 33003KT 10SM OVC021 M02/M07 A3028 RMK AO1
Loading
Personal Weather Stations






























Interactive Weather Map New forecast layout! Learn more

10-Day Weather Forecast

Advertisements
Track Severe Weather on mobile